createdAt,value
2019-05-11T00:00:44.586Z,99785.91
2019-05-11T00:03:11.597Z,99786.38
2019-05-11T00:05:39.007Z,99777.38
2019-05-11T00:08:06.048Z,99778.23
2019-05-11T00:10:33.150Z,99775.70
2019-05-11T00:13:00.305Z,99768.33
2019-05-11T00:15:27.886Z,99773.92
2019-05-11T00:17:54.874Z,99776.55
2019-05-11T00:20:22.930Z,99778.62
2019-05-11T00:22:49.969Z,99778.21
2019-05-11T00:25:17.570Z,99777.68
2019-05-11T00:27:44.637Z,99784.69
2019-05-11T00:30:13.428Z,99788.92
2019-05-11T00:32:40.476Z,99785.91
2019-05-11T00:35:08.594Z,99786.36
2019-05-11T00:37:35.666Z,99771.77
2019-05-11T00:40:14.085Z,99765.73
2019-05-11T00:42:32.056Z,99773.39
2019-05-11T00:44:59.811Z,99772.95
2019-05-11T00:47:26.838Z,99770.77
2019-05-11T00:49:53.830Z,99774.22
2019-05-11T00:52:21.042Z,99778.05
2019-05-11T00:54:48.776Z,99775.52
2019-05-11T00:57:18.501Z,99780.26
2019-05-11T00:59:45.502Z,99772.92
2019-05-11T01:02:12.511Z,99763.16
2019-05-11T01:04:39.871Z,99758.29
2019-05-11T01:07:06.899Z,99745.39
2019-05-11T01:09:34.396Z,99738.95
2019-05-11T01:12:01.518Z,99732.56
2019-05-11T01:14:28.906Z,99731.25
2019-05-11T01:16:55.924Z,99732.06
2019-05-11T01:19:22.942Z,99736.63
2019-05-11T01:21:50.537Z,99730.27
2019-05-11T01:24:19.058Z,99731.56
2019-05-11T01:26:46.106Z,99730.59
2019-05-11T01:29:13.361Z,99729.50
2019-05-11T01:31:40.394Z,99735.33
2019-05-11T01:34:08.031Z,99726.83
2019-05-11T01:36:35.075Z,99724.23
2019-05-11T01:39:02.212Z,99720.34
2019-05-11T01:41:29.270Z,99712.16
2019-05-11T01:43:57.715Z,99728.09
2019-05-11T01:46:24.717Z,99732.28
2019-05-11T01:48:51.842Z,99725.63
2019-05-11T01:51:19.518Z,99730.46
2019-05-11T01:53:48.100Z,99732.31
2019-05-11T01:56:15.350Z,99730.22
2019-05-11T01:58:42.352Z,99736.11
2019-05-11T02:01:09.347Z,99735.23
2019-05-11T02:03:36.770Z,99729.73
2019-05-11T02:06:04.002Z,99726.87
2019-05-11T02:08:31.019Z,99723.59
2019-05-11T02:11:13.807Z,99726.19
2019-05-11T02:13:26.979Z,99728.73
2019-05-11T02:15:54.091Z,99735.16
2019-05-11T02:18:21.131Z,99738.23
2019-05-11T02:20:48.559Z,99733.98
2019-05-11T02:23:15.827Z,99733.73
2019-05-11T02:25:42.831Z,99731.54
2019-05-11T02:28:09.939Z,99736.31
2019-05-11T02:30:36.984Z,99739.17
2019-05-11T02:33:03.983Z,99732.03
2019-05-11T02:35:31.197Z,99728.16
2019-05-11T02:37:58.539Z,99727.61
2019-05-11T02:40:25.795Z,99730.73
2019-05-11T02:42:52.787Z,99725.13
2019-05-11T02:45:37.729Z,99717.28
2019-05-11T02:48:04.751Z,99711.52
2019-05-11T02:50:32.881Z,99710.94
2019-05-11T02:53:01.088Z,99707.55
2019-05-11T02:55:28.763Z,99705.84
2019-05-11T02:57:55.773Z,99698.25
2019-05-11T03:00:34.274Z,99698.83
2019-05-11T03:03:01.275Z,99703.17
2019-05-11T03:05:28.263Z,99707.41
2019-05-11T03:07:55.267Z,99695.23
2019-05-11T03:10:22.607Z,99690.58
2019-05-11T03:12:49.588Z,99692.98
2019-05-11T03:15:16.970Z,99694.53
2019-05-11T03:17:43.980Z,99690.07
2019-05-11T03:20:11.583Z,99694.73
2019-05-11T03:22:38.558Z,99701.09
2019-05-11T03:25:07.049Z,99698.55
2019-05-11T03:27:34.130Z,99705.36
2019-05-11T03:30:02.232Z,99704.70
2019-05-11T03:32:29.511Z,99705.50
2019-05-11T03:34:56.501Z,99704.11
2019-05-11T03:37:26.921Z,99710.42
2019-05-11T03:39:54.176Z,99718.19
2019-05-11T03:42:21.416Z,99722.50
2019-05-11T03:44:48.466Z,99726.52
2019-05-11T03:47:15.833Z,99733.61
2019-05-11T03:49:42.845Z,99739.02
2019-05-11T03:52:09.854Z,99729.10
2019-05-11T03:54:36.835Z,99737.13
2019-05-11T03:57:05.186Z,99737.34
2019-05-11T03:59:32.302Z,99734.87
2019-05-11T04:01:59.406Z,99729.81
2019-05-11T04:04:26.442Z,99734.48
2019-05-11T04:06:53.843Z,99737.42
2019-05-11T04:09:20.823Z,99736.09
2019-05-11T04:11:48.242Z,99737.80
2019-05-11T04:14:16.557Z,99737.84
2019-05-11T04:16:44.063Z,99743.73
2019-05-11T04:19:11.142Z,99739.53
2019-05-11T04:21:38.197Z,99740.16
2019-05-11T04:24:05.211Z,99735.13
2019-05-11T04:26:32.878Z,99734.23
2019-05-11T04:28:59.904Z,99733.77
2019-05-11T04:31:26.935Z,99741.39
2019-05-11T04:33:54.398Z,99739.27
2019-05-11T04:36:21.496Z,99740.42
2019-05-11T04:38:48.961Z,99744.64
2019-05-11T04:41:16.073Z,99745.44
2019-05-11T04:43:43.446Z,99744.52
2019-05-11T04:46:10.620Z,99743.34
2019-05-11T04:48:37.629Z,99750.14
2019-05-11T04:51:04.700Z,99750.25
2019-05-11T04:53:31.984Z,99752.45
2019-05-11T04:55:59.058Z,99753.94
2019-05-11T04:58:27.188Z,99756.90
2019-05-11T05:00:54.208Z,99757.64
2019-05-11T05:03:21.632Z,99757.73
2019-05-11T05:05:49.250Z,99757.84
2019-05-11T05:08:16.259Z,99752.69
2019-05-11T05:10:43.339Z,99756.91
2019-05-11T05:13:11.097Z,99763.03
2019-05-11T05:15:38.352Z,99758.23
2019-05-11T05:18:05.620Z,99754.86
2019-05-11T05:20:32.653Z,99752.27
2019-05-11T05:22:59.960Z,99754.86
2019-05-11T05:25:27.209Z,99756.44
2019-05-11T05:27:55.036Z,99751.70
2019-05-11T05:30:22.189Z,99754.17
2019-05-11T05:32:49.345Z,99759.82
2019-05-11T05:35:16.361Z,99759.08
2019-05-11T05:37:43.324Z,99763.73
2019-05-11T05:40:10.460Z,99760.03
2019-05-11T05:42:37.476Z,99759.33
2019-05-11T05:45:05.606Z,99763.30
2019-05-11T05:47:32.640Z,99764.03
2019-05-11T05:49:59.672Z,99762.65
2019-05-11T05:52:27.137Z,99769.16
2019-05-11T05:54:54.757Z,99772.11
2019-05-11T05:57:21.952Z,99774.45
2019-05-11T05:59:49.003Z,99767.66
2019-05-11T06:02:16.148Z,99771.72
2019-05-11T06:04:43.189Z,99768.45
2019-05-11T06:07:10.245Z,99771.03
2019-05-11T06:09:37.245Z,99773.88
2019-05-11T06:12:04.640Z,99770.93
2019-05-11T06:14:31.696Z,99772.69
2019-05-11T06:16:59.057Z,99767.18
2019-05-11T06:19:26.094Z,99774.30
2019-05-11T06:21:53.409Z,99781.42
2019-05-11T06:24:20.490Z,99777.91
2019-05-11T06:26:49.557Z,99779.52
2019-05-11T06:29:21.280Z,99776.53
2019-05-11T06:31:46.657Z,99778.05
2019-05-11T06:34:14.109Z,99777.58
2019-05-11T06:36:41.153Z,99776.94
2019-05-11T06:39:08.332Z,99776.48
2019-05-11T06:41:36.028Z,99780.84
2019-05-11T06:44:03.589Z,99779.23
2019-05-11T06:46:30.679Z,99785.95
2019-05-11T06:48:58.209Z,99785.12
2019-05-11T06:51:25.285Z,99782.23
2019-05-11T06:53:52.434Z,99781.89
2019-05-11T06:56:19.793Z,99779.92
2019-05-11T06:58:49.327Z,99781.76
2019-05-11T07:01:16.356Z,99789.81
2019-05-11T07:03:43.393Z,99790.13
2019-05-11T07:06:10.442Z,99785.45
2019-05-11T07:08:37.866Z,99790.72
2019-05-11T07:11:06.094Z,99787.84
2019-05-11T07:13:33.168Z,99800.34
2019-05-11T07:16:00.169Z,99797.99
2019-05-11T07:18:27.228Z,99803.00
2019-05-11T07:20:54.254Z,99800.75
2019-05-11T07:23:21.310Z,99802.64
2019-05-11T07:25:49.722Z,99803.18
2019-05-11T07:28:17.466Z,99803.45
2019-05-11T07:30:44.809Z,99806.47
2019-05-11T07:33:14.100Z,99806.20
2019-05-11T07:35:41.082Z,99804.09
2019-05-11T07:38:08.418Z,99802.70
2019-05-11T07:40:38.521Z,99800.70
2019-05-11T07:43:09.494Z,99802.81
2019-05-11T07:45:35.180Z,99795.58
2019-05-11T07:48:02.537Z,99799.97
2019-05-11T07:50:29.619Z,99799.77
2019-05-11T07:52:58.931Z,99794.69
2019-05-11T07:55:28.194Z,99798.80
2019-05-11T07:57:54.930Z,99802.11
2019-05-11T08:00:21.974Z,99807.02
2019-05-11T08:02:49.018Z,99803.34
2019-05-11T08:05:18.002Z,99814.14
2019-05-11T08:07:47.950Z,99814.30
2019-05-11T08:10:14.754Z,99820.08
2019-05-11T08:12:41.993Z,99826.91
2019-05-11T08:15:13.282Z,99826.98
2019-05-11T08:17:39.978Z,99821.03
2019-05-11T08:20:08.450Z,99819.56
2019-05-11T08:22:37.757Z,99823.96
2019-05-11T08:25:05.150Z,99817.94
2019-05-11T08:27:32.588Z,99823.53
2019-05-11T08:29:59.651Z,99831.25
2019-05-11T08:32:28.710Z,99830.38
2019-05-11T08:34:58.491Z,99826.38
2019-05-11T08:37:25.606Z,99831.61
2019-05-11T08:39:52.864Z,99833.20
2019-05-11T08:42:21.358Z,99839.66
2019-05-11T08:44:48.851Z,99843.95
2019-05-11T08:47:17.772Z,99848.97
2019-05-11T08:49:44.861Z,99856.95
2019-05-11T08:52:11.886Z,99852.88
2019-05-11T08:54:38.988Z,99854.91
2019-05-11T08:57:08.178Z,99859.62
2019-05-11T08:59:39.209Z,99862.86
2019-05-11T09:02:08.319Z,99864.65
2019-05-11T09:04:39.406Z,99875.13
2019-05-11T09:07:04.674Z,99870.14
2019-05-11T09:09:31.747Z,99873.59
2019-05-11T09:11:59.071Z,99884.08
2019-05-11T09:14:28.417Z,99891.08
2019-05-11T09:16:57.596Z,99893.64
2019-05-11T09:19:24.743Z,99890.06
2019-05-11T09:21:52.316Z,99900.13
2019-05-11T09:24:19.347Z,99899.86
2019-05-11T09:26:47.947Z,99899.83
2019-05-11T09:29:15.215Z,99908.72
2019-05-11T09:31:43.575Z,99906.44
2019-05-11T09:34:10.684Z,99905.39
2019-05-11T09:36:38.948Z,99910.72
2019-05-11T09:39:08.436Z,99914.19
2019-05-11T09:41:38.324Z,99913.77
2019-05-11T09:44:09.019Z,99923.97
2019-05-11T09:46:38.436Z,99927.54
2019-05-11T09:49:07.836Z,99931.27
2019-05-11T09:51:34.531Z,99931.64
2019-05-11T09:54:01.588Z,99931.98
2019-05-11T09:56:29.121Z,99940.14
2019-05-11T09:58:58.890Z,99943.93
2019-05-11T10:01:26.254Z,99948.00
2019-05-11T10:03:53.306Z,99951.62
2019-05-11T10:06:20.403Z,99953.97
2019-05-11T10:08:48.778Z,99958.05
2019-05-11T10:11:19.055Z,99960.13
2019-05-11T10:13:47.771Z,99955.45
2019-05-11T10:16:17.609Z,99954.34
2019-05-11T10:18:48.880Z,99959.72
2019-05-11T10:21:15.550Z,99963.80
2019-05-11T10:23:42.739Z,99971.20
2019-05-11T10:26:09.976Z,99979.25
2019-05-11T10:28:38.938Z,99984.55
2019-05-11T10:31:08.587Z,99987.17
2019-05-11T10:33:38.083Z,99992.49
2019-05-11T10:36:08.408Z,99997.35
2019-05-11T10:38:37.784Z,100001.08
2019-05-11T10:41:04.868Z,100005.88
2019-05-11T10:43:32.076Z,100014.01
2019-05-11T10:45:59.561Z,100012.83
2019-05-11T10:48:28.218Z,100018.73
2019-05-11T10:50:57.132Z,100014.36
2019-05-11T10:53:24.279Z,100016.44
2019-05-11T10:55:51.275Z,100019.78
2019-05-11T10:58:18.673Z,100016.85
2019-05-11T11:00:48.042Z,100019.70
2019-05-11T11:03:15.141Z,100027.64
2019-05-11T11:05:42.117Z,100017.89
2019-05-11T11:08:09.134Z,100021.78
2019-05-11T11:10:37.848Z,100022.20
2019-05-11T11:13:05.083Z,100026.28
2019-05-11T11:15:32.221Z,100024.45
2019-05-11T11:17:59.684Z,100033.91
2019-05-11T11:20:28.037Z,100034.16
2019-05-11T11:23:05.714Z,100042.85
2019-05-11T11:25:40.322Z,100041.10
2019-05-11T11:28:08.455Z,100048.27
2019-05-11T11:30:37.844Z,100049.25
2019-05-11T11:33:04.833Z,100045.61
2019-05-11T11:35:31.991Z,100054.91
2019-05-11T11:38:00.010Z,100061.45
2019-05-11T11:40:28.152Z,100067.38
2019-05-11T11:42:58.267Z,100073.86
2019-05-11T11:45:25.006Z,100082.84
2019-05-11T11:47:52.229Z,100080.22
2019-05-11T11:50:19.208Z,100081.81
2019-05-11T11:52:47.712Z,100087.77
2019-05-11T11:55:14.934Z,100094.44
2019-05-11T11:57:43.830Z,100100.07
2019-05-11T12:00:11.151Z,100102.81
2019-05-11T12:02:38.950Z,100102.20
2019-05-11T12:05:08.617Z,100108.92
2019-05-11T12:07:35.286Z,100107.58
2019-05-11T12:10:02.443Z,100113.94
2019-05-11T12:12:29.893Z,100112.38
2019-05-11T12:14:58.439Z,100123.11
2019-05-11T12:17:25.838Z,100123.81
2019-05-11T12:19:52.907Z,100120.64
2019-05-11T12:22:19.929Z,100126.36
2019-05-11T12:24:48.191Z,100131.86
2019-05-11T12:27:18.105Z,100134.42
2019-05-11T12:29:45.121Z,100134.46
2019-05-11T12:32:18.597Z,100139.97
2019-05-11T12:34:48.057Z,100143.58
2019-05-11T12:37:14.669Z,100143.30
2019-05-11T12:39:42.886Z,100150.89
2019-05-11T12:42:09.940Z,100165.73
2019-05-11T12:44:38.725Z,100173.20
2019-05-11T12:47:19.160Z,100176.66
2019-05-11T12:49:35.076Z,100179.09
2019-05-11T12:52:02.123Z,100186.46
2019-05-11T12:54:29.554Z,100187.91
2019-05-11T12:56:57.944Z,100193.29
2019-05-11T12:59:27.600Z,100203.42
2019-05-11T13:01:54.462Z,100206.52
2019-05-11T13:04:21.665Z,100217.33
2019-05-11T13:06:49.119Z,100218.69
2019-05-11T13:09:18.350Z,100215.66
2019-05-11T13:11:48.024Z,100220.14
2019-05-11T13:14:15.738Z,100221.05
2019-05-11T13:16:42.826Z,100224.55
2019-05-11T13:19:10.294Z,100230.51
2019-05-11T13:21:38.346Z,100227.50
2019-05-11T13:24:08.159Z,100233.52
2019-05-11T13:26:34.664Z,100248.25
2019-05-11T13:29:01.785Z,100250.59
2019-05-11T13:31:28.986Z,100252.09
2019-05-11T13:33:58.364Z,100260.28
2019-05-11T13:36:24.946Z,100255.02
2019-05-11T13:38:51.999Z,100259.02
2019-05-11T13:41:20.261Z,100258.75
2019-05-11T13:43:48.965Z,100263.47
2019-05-11T13:46:18.024Z,100264.91
2019-05-11T13:48:47.535Z,100268.00
2019-05-11T13:51:15.499Z,100272.01
2019-05-11T13:53:42.614Z,100272.13
2019-05-11T13:56:09.671Z,100269.71
2019-05-11T13:58:38.129Z,100277.03
2019-05-11T14:01:07.869Z,100278.01
2019-05-11T14:03:34.263Z,100277.47
2019-05-11T14:06:01.274Z,100279.16
2019-05-11T14:08:30.367Z,100288.74
2019-05-11T14:10:59.159Z,100297.11
2019-05-11T14:13:28.030Z,100296.59
2019-05-11T14:15:55.150Z,100297.43
2019-05-11T14:18:22.535Z,100304.75
2019-05-11T14:20:49.532Z,100304.95
2019-05-11T14:23:18.263Z,100313.39
2019-05-11T14:25:45.564Z,100313.34
2019-05-11T14:28:12.608Z,100325.02
2019-05-11T14:30:39.702Z,100323.12
2019-05-11T14:33:08.695Z,100330.46
2019-05-11T14:35:35.751Z,100325.77
2019-05-11T14:38:03.162Z,100332.66
2019-05-11T14:40:32.514Z,100333.86
2019-05-11T14:42:59.887Z,100331.66
2019-05-11T14:45:28.814Z,100330.95
2019-05-11T14:47:58.086Z,100339.81
2019-05-11T14:50:25.136Z,100337.45
2019-05-11T14:52:52.591Z,100341.23
2019-05-11T14:55:20.288Z,100341.07
2019-05-11T14:57:48.622Z,100346.19
2019-05-11T15:00:18.501Z,100353.63
2019-05-11T15:02:48.602Z,100354.77
2019-05-11T15:05:19.506Z,100364.33
2019-05-11T15:07:47.977Z,100376.36
2019-05-11T15:10:18.524Z,100379.68
2019-05-11T15:12:45.063Z,100384.09
2019-05-11T15:15:12.903Z,100384.12
2019-05-11T15:17:39.907Z,100382.16
2019-05-11T15:20:08.298Z,100393.46
2019-05-11T15:22:37.358Z,100391.59
2019-05-11T15:25:08.036Z,100400.05
2019-05-11T15:27:35.347Z,100398.22
2019-05-11T15:30:02.470Z,100406.30
2019-05-11T15:32:29.508Z,100399.48
2019-05-11T15:34:57.816Z,100406.12
2019-05-11T15:37:24.995Z,100415.55
2019-05-11T15:39:55.298Z,100417.39
2019-05-11T15:42:22.439Z,100421.60
2019-05-11T15:44:49.905Z,100422.95
2019-05-11T15:47:16.945Z,100422.70
2019-05-11T15:49:43.968Z,100426.80
2019-05-11T15:52:11.453Z,100423.77
2019-05-11T15:54:38.640Z,100432.22
2019-05-11T15:57:05.776Z,100440.70
2019-05-11T15:59:32.804Z,100440.36
2019-05-11T16:02:01.222Z,100447.15
2019-05-11T16:04:28.247Z,100452.94
2019-05-11T16:06:57.593Z,100459.21
2019-05-11T16:09:24.663Z,100455.66
2019-05-11T16:11:51.676Z,100456.34
2019-05-11T16:14:18.738Z,100460.16
2019-05-11T16:16:47.926Z,100468.41
2019-05-11T16:19:15.444Z,100463.70
2019-05-11T16:21:43.132Z,100466.96
2019-05-11T16:24:10.558Z,100471.16
2019-05-11T16:26:37.548Z,100478.90
2019-05-11T16:29:11.450Z,100480.81
2019-05-11T16:31:38.016Z,100481.23
2019-05-11T16:34:05.152Z,100485.96
2019-05-11T16:36:32.172Z,100485.96
2019-05-11T16:38:59.356Z,100487.55
2019-05-11T16:41:29.142Z,100496.89
2019-05-11T16:43:58.368Z,100496.66
2019-05-11T16:46:30.841Z,100504.58
2019-05-11T16:48:58.712Z,100507.79
2019-05-11T16:51:28.224Z,100511.53
2019-05-11T16:53:54.881Z,100519.32
2019-05-11T16:56:23.849Z,100520.67
2019-05-11T16:58:54.264Z,100521.28
2019-05-11T17:01:21.044Z,100516.23
2019-05-11T17:03:48.316Z,100522.19
2019-05-11T17:06:16.060Z,100527.66
2019-05-11T17:08:43.088Z,100538.45
2019-05-11T17:11:10.310Z,100533.84
2019-05-11T17:13:38.131Z,100546.89
2019-05-11T17:16:05.208Z,100550.85
2019-05-11T17:18:32.272Z,100548.51
2019-05-11T17:20:59.464Z,100556.16
2019-05-11T17:23:30.894Z,100568.25
2019-05-11T17:25:57.867Z,100576.66
2019-05-11T17:28:24.965Z,100579.08
2019-05-11T17:30:55.238Z,100590.42
2019-05-11T17:33:22.645Z,100593.02
2019-05-11T17:35:52.138Z,100599.11
2019-05-11T17:38:19.135Z,100600.83
2019-05-11T17:40:48.267Z,100605.97
2019-05-11T17:43:17.971Z,100617.52
2019-05-11T17:45:44.744Z,100613.70
2019-05-11T17:48:12.901Z,100623.77
2019-05-11T17:50:40.041Z,100627.39
2019-05-11T17:53:09.441Z,100630.79
2019-05-11T17:55:38.456Z,100637.41
2019-05-11T17:58:05.984Z,100642.66
2019-05-11T18:00:33.019Z,100644.72
2019-05-11T18:03:00.060Z,100647.76
2019-05-11T18:05:27.073Z,100649.63
2019-05-11T18:07:54.596Z,100648.39
2019-05-11T18:10:21.617Z,100658.00
2019-05-11T18:12:48.980Z,100658.20
2019-05-11T18:15:18.578Z,100664.08
2019-05-11T18:17:48.149Z,100673.98
2019-05-11T18:20:18.654Z,100676.98
2019-05-11T18:22:45.321Z,100684.36
2019-05-11T18:25:14.114Z,100693.48
2019-05-11T18:27:41.562Z,100700.59
2019-05-11T18:30:10.281Z,100701.73
2019-05-11T18:32:39.607Z,100707.19
2019-05-11T18:35:08.386Z,100713.34
2019-05-11T18:37:38.695Z,100721.23
2019-05-11T18:40:06.107Z,100721.02
2019-05-11T18:42:33.142Z,100727.88
2019-05-11T18:45:00.322Z,100733.06
2019-05-11T18:47:29.806Z,100740.55
2019-05-11T18:49:58.791Z,100740.58
2019-05-11T18:52:25.857Z,100748.36
2019-05-11T18:54:52.853Z,100762.70
2019-05-11T18:57:20.211Z,100769.74
2019-05-11T18:59:48.406Z,100771.53
2019-05-11T19:02:15.586Z,100771.10
2019-05-11T19:04:44.532Z,100775.02
2019-05-11T19:07:16.828Z,100782.87
2019-05-11T19:09:40.886Z,100780.74
2019-05-11T19:12:10.718Z,100785.91
2019-05-11T19:14:38.562Z,100794.17
2019-05-11T19:17:07.722Z,100798.45
2019-05-11T19:19:35.317Z,100808.02
2019-05-11T19:22:04.154Z,100808.50
2019-05-11T19:24:31.181Z,100816.70
2019-05-11T19:26:58.816Z,100822.73
2019-05-11T19:29:28.311Z,100831.82
2019-05-11T19:31:57.933Z,100835.73
2019-05-11T19:34:24.805Z,100840.52
2019-05-11T19:36:51.925Z,100844.80
2019-05-11T19:39:19.478Z,100856.91
2019-05-11T19:41:47.189Z,100853.44
2019-05-11T19:44:14.292Z,100866.39
2019-05-11T19:46:41.337Z,100867.25
2019-05-11T19:49:08.760Z,100875.02
2019-05-11T19:51:42.140Z,100884.07
2019-05-11T19:54:08.563Z,100882.34
2019-05-11T19:56:37.801Z,100887.94
2019-05-11T19:59:04.753Z,100896.14
2019-05-11T20:01:31.745Z,100901.27
2019-05-11T20:03:58.790Z,100909.89
2019-05-11T20:06:28.048Z,100915.05
2019-05-11T20:08:55.336Z,100916.77
2019-05-11T20:11:22.485Z,100924.13
2019-05-11T20:13:49.497Z,100924.97
2019-05-11T20:16:18.894Z,100934.02
2019-05-11T20:18:46.065Z,100940.88
2019-05-11T20:21:18.830Z,100939.98
2019-05-11T20:23:42.042Z,100948.13
2019-05-11T20:26:09.150Z,100954.48
2019-05-11T20:28:37.817Z,100962.67
2019-05-11T20:31:07.871Z,100961.33
2019-05-11T20:33:35.409Z,100971.69
2019-05-11T20:36:02.992Z,100980.66
2019-05-11T20:38:30.043Z,100981.12
2019-05-11T20:40:57.734Z,100984.02
2019-05-11T20:43:25.007Z,100984.89
2019-05-11T20:45:52.027Z,100986.13
2019-05-11T20:48:19.043Z,100991.93
2019-05-11T20:50:48.336Z,100993.77
2019-05-11T20:53:17.994Z,100998.10
2019-05-11T20:55:44.912Z,101005.91
2019-05-11T20:58:15.035Z,101009.24
2019-05-11T21:00:42.812Z,101014.67
2019-05-11T21:03:09.819Z,101014.66
2019-05-11T21:05:37.755Z,101020.50
2019-05-11T21:08:08.318Z,101018.45
2019-05-11T21:10:35.412Z,101029.83
2019-05-11T21:13:03.097Z,101038.15
2019-05-11T21:15:30.507Z,101044.44
2019-05-11T21:17:58.632Z,101054.05
2019-05-11T21:20:25.924Z,101054.61
2019-05-11T21:22:52.901Z,101056.16
2019-05-11T21:25:20.351Z,101063.29
2019-05-11T21:27:48.610Z,101065.65
2019-05-11T21:30:18.293Z,101069.27
2019-05-11T21:32:45.071Z,101070.92
2019-05-11T21:35:12.763Z,101078.23
2019-05-11T21:37:39.744Z,101083.84
2019-05-11T21:40:09.146Z,101081.53
2019-05-11T21:42:39.106Z,101083.64
2019-05-11T21:45:09.235Z,101093.88
2019-05-11T21:47:38.345Z,101089.21
2019-05-11T21:50:05.050Z,101095.66
2019-05-11T21:52:32.564Z,101098.88
2019-05-11T21:55:02.835Z,101102.45
2019-05-11T21:57:30.509Z,101105.25
2019-05-11T22:00:00.576Z,101110.48
2019-05-11T22:02:28.728Z,101114.94
2019-05-11T22:04:58.512Z,101112.67
2019-05-11T22:07:27.833Z,101111.86
2019-05-11T22:09:54.836Z,101121.84
2019-05-11T22:12:22.300Z,101121.27
2019-05-11T22:14:49.316Z,101127.38
2019-05-11T22:17:18.217Z,101129.47
2019-05-11T22:19:47.391Z,101136.00
2019-05-11T22:22:22.515Z,101136.61
2019-05-11T22:24:43.904Z,101142.20
2019-05-11T22:27:10.908Z,101153.02
2019-05-11T22:29:38.004Z,101156.75
2019-05-11T22:32:05.765Z,101156.48
2019-05-11T22:34:32.816Z,101153.64
2019-05-11T22:36:59.808Z,101158.70
2019-05-11T22:39:26.815Z,101154.38
2019-05-11T22:41:54.364Z,101158.19
2019-05-11T22:44:21.520Z,101160.76
2019-05-11T22:46:48.704Z,101161.36
2019-05-11T22:49:17.769Z,101162.15
2019-05-11T22:51:45.105Z,101167.13
2019-05-11T22:54:12.153Z,101173.18
2019-05-11T22:56:39.337Z,101172.16
2019-05-11T22:59:08.267Z,101181.19
2019-05-11T23:01:37.893Z,101185.11
2019-05-11T23:04:06.197Z,101187.27
2019-05-11T23:06:33.208Z,101194.25
2019-05-11T23:09:00.205Z,101197.94
2019-05-11T23:11:28.511Z,101200.48
2019-05-11T23:13:55.953Z,101201.38
2019-05-11T23:16:22.997Z,101199.44
2019-05-11T23:18:50.000Z,101213.89
2019-05-11T23:21:17.105Z,101218.66
2019-05-11T23:23:44.243Z,101229.81
2019-05-11T23:26:11.904Z,101232.86
2019-05-11T23:28:38.913Z,101225.56
2019-05-11T23:31:05.933Z,101234.14
2019-05-11T23:33:32.970Z,101237.13
2019-05-11T23:36:00.397Z,101236.87
2019-05-11T23:38:28.204Z,101239.21
2019-05-11T23:40:55.417Z,101238.98
2019-05-11T23:43:22.477Z,101237.81
2019-05-11T23:45:49.619Z,101246.05
2019-05-11T23:48:17.069Z,101254.20
2019-05-11T23:50:46.169Z,101258.59
2019-05-11T23:53:13.727Z,101260.87
2019-05-11T23:55:40.786Z,101258.23
2019-05-11T23:58:08.715Z,101260.27
